Time;durP1;ratioP1;P1;durP2;ratioP2;P2;SDS_P1;SDS_P2;PMS_P1;PMS_P2;Temp;Humidity;BMP_temperature;BMP_pressure;BME280_temperature;BME280_humidity;BME280_pressure;Samples;Min_cycle;Max_cycle;Signal;HPM_P1;HPM_P2
2023/03/07 00:00:36;;;;;;;1.70;1.60;;;17.00;50.50;;;;;;5113478;28;20257;-56
2023/03/07 00:03:01;;;;;;;1.55;1.45;;;16.90;50.50;;;;;;5112787;28;20177;-56
2023/03/07 00:05:27;;;;;;;1.70;1.60;;;16.90;50.50;;;;;;5113541;28;20225;-55
2023/03/07 00:07:52;;;;;;;1.40;1.30;;;16.90;50.50;;;;;;5113102;28;20187;-54
2023/03/07 00:10:18;;;;;;;1.60;1.50;;;16.90;50.50;;;;;;5112471;28;20206;-53
2023/03/07 00:12:43;;;;;;;1.60;1.50;;;16.80;50.50;;;;;;5112758;28;20538;-53
2023/03/07 00:15:09;;;;;;;1.50;1.40;;;16.80;50.50;;;;;;5113328;28;20185;-55
2023/03/07 00:17:36;;;;;;;1.48;1.38;;;16.80;50.50;;;;;;5112634;28;20249;-55
2023/03/07 00:20:05;;;;;;;1.65;1.55;;;16.80;50.50;;;;;;5112895;28;20992;-55
2023/03/07 00:22:30;;;;;;;1.77;1.67;;;16.80;50.50;;;;;;5113179;28;20228;-56
2023/03/07 00:24:56;;;;;;;1.30;1.20;;;16.80;50.50;;;;;;5112346;28;20199;-55
2023/03/07 00:27:21;;;;;;;1.50;1.40;;;16.70;50.60;;;;;;5112531;28;20173;-58
2023/03/07 00:29:49;;;;;;;1.60;1.50;;;16.70;50.60;;;;;;5112980;28;20169;-54
2023/03/07 00:32:14;;;;;;;1.80;1.70;;;16.70;50.50;;;;;;5112489;28;20545;-54
2023/03/07 00:34:40;;;;;;;1.55;1.45;;;16.70;51.10;;;;;;5113193;28;20241;-55
2023/03/07 00:37:05;;;;;;;1.55;1.45;;;16.70;50.50;;;;;;5112895;28;20173;-54
2023/03/07 00:39:31;;;;;;;1.77;1.50;;;16.70;50.60;;;;;;5112277;28;20209;-55
2023/03/07 00:41:56;;;;;;;1.20;1.10;;;16.70;50.70;;;;;;5112964;28;20530;-55
2023/03/07 00:44:22;;;;;;;1.55;1.45;;;16.60;50.50;;;;;;5113228;28;20260;-55
2023/03/07 00:46:47;;;;;;;1.23;1.20;;;16.60;50.60;;;;;;5112186;28;20256;-53
2023/03/07 00:49:13;;;;;;;1.60;1.50;;;16.70;50.60;;;;;;5113202;28;20255;-54
2023/03/07 00:51:38;;;;;;;1.95;1.55;;;16.60;50.60;;;;;;5113108;28;20595;-54
2023/03/07 00:54:04;;;;;;;1.50;1.40;;;16.60;50.70;;;;;;5111905;28;20187;-54
2023/03/07 00:56:29;;;;;;;1.60;1.50;;;16.60;50.60;;;;;;5113139;28;20226;-53
2023/03/07 00:58:55;;;;;;;1.92;1.77;;;16.60;50.70;;;;;;5112725;28;20169;-56
2023/03/07 01:01:22;;;;;;;1.70;1.60;;;16.60;50.70;;;;;;5112408;28;20644;-56
2023/03/07 01:03:54;;;;;;;1.38;1.27;;;16.60;50.70;;;;;;5112876;28;20528;-51
2023/03/07 01:06:22;;;;;;;1.20;1.20;;;16.60;50.70;;;;;;5112250;28;20189;-55
2023/03/07 01:08:48;;;;;;;1.20;1.15;;;16.50;50.60;;;;;;5112444;28;20169;-53
2023/03/07 01:11:13;;;;;;;1.33;1.23;;;16.60;50.70;;;;;;5113040;28;20574;-52
2023/03/07 01:13:39;;;;;;;1.42;1.33;;;16.50;50.70;;;;;;5112819;28;20701;-54
2023/03/07 01:16:16;;;;;;;1.38;1.27;;;16.50;50.60;;;;;;5112552;28;20255;-52
2023/03/07 01:18:41;;;;;;;1.15;1.10;;;16.50;50.60;;;;;;5112939;28;20222;-54
2023/03/07 01:21:12;;;;;;;1.30;1.20;;;16.50;50.70;;;;;;5111865;28;20609;-54
2023/03/07 01:23:37;;;;;;;1.63;1.52;;;16.40;50.60;;;;;;5112710;28;20189;-54
2023/03/07 01:26:03;;;;;;;1.20;1.20;;;16.50;50.70;;;;;;5112668;28;20207;-53
2023/03/07 01:28:29;;;;;;;1.30;1.20;;;16.40;50.60;;;;;;5111996;28;20170;-53
2023/03/07 01:30:58;;;;;;;1.98;1.55;;;16.40;50.60;;;;;;5112523;28;20169;-49
2023/03/07 01:33:23;;;;;;;1.42;1.33;;;16.40;50.60;;;;;;5112672;28;20641;-49
2023/03/07 01:35:49;;;;;;;1.35;1.27;;;16.40;50.60;;;;;;5111550;28;20181;-54
2023/03/07 01:38:14;;;;;;;1.27;1.20;;;16.40;50.60;;;;;;5114005;28;20165;-51
2023/03/07 01:40:40;;;;;;;1.48;1.38;;;16.40;50.60;;;;;;5116519;28;20208;-55
2023/03/07 01:43:23;;;;;;;1.77;1.45;;;16.30;50.60;;;;;;5115520;28;20169;-52
2023/03/07 01:45:48;;;;;;;1.50;1.30;;;16.40;50.60;;;;;;5114862;28;20200;-55
2023/03/07 01:48:14;;;;;;;1.50;1.40;;;16.40;50.70;;;;;;5115913;28;20208;-55
2023/03/07 01:50:42;;;;;;;1.33;1.15;;;16.40;50.70;;;;;;5115861;28;20177;-55
2023/03/07 01:53:08;;;;;;;1.52;1.42;;;16.30;50.60;;;;;;5115180;28;20180;-54
2023/03/07 01:55:34;;;;;;;1.30;1.20;;;16.30;50.60;;;;;;5115534;28;20178;-53
2023/03/07 01:58:05;;;;;;;1.33;1.25;;;16.30;50.70;;;;;;5115908;28;20306;-54
2023/03/07 02:00:30;;;;;;;2.20;1.30;;;16.30;50.70;;;;;;5114775;28;20295;-53
2023/03/07 02:03:05;;;;;;;1.58;1.48;;;16.30;50.80;;;;;;5115089;28;20263;-55
2023/03/07 02:05:36;;;;;;;1.58;1.48;;;16.30;51.40;;;;;;5115977;28;20237;-55
2023/03/07 02:08:02;;;;;;;2.17;1.40;;;16.30;50.70;;;;;;5115784;27;20184;-55
2023/03/07 02:10:28;;;;;;;1.50;1.40;;;16.20;50.70;;;;;;5114990;28;20185;-53
2023/03/07 02:12:53;;;;;;;1.27;1.17;;;16.30;50.70;;;;;;5114254;28;20201;-53
2023/03/07 02:15:19;;;;;;;1.60;1.50;;;16.20;50.70;;;;;;5115631;28;20527;-54
2023/03/07 02:17:44;;;;;;;1.30;1.30;;;16.20;50.80;;;;;;5114559;28;20204;-54
2023/03/07 02:20:13;;;;;;;1.40;1.30;;;16.20;50.80;;;;;;5114366;28;20219;-53
2023/03/07 02:22:39;;;;;;;1.02;1.02;;;16.20;50.80;;;;;;5115557;28;20229;-54
2023/03/07 02:25:34;;;;;;;1.45;1.35;;;16.20;50.80;;;;;;5113392;28;20181;-55
2023/03/07 02:28:00;;;;;;;1.83;1.38;;;16.20;50.80;;;;;;5077830;28;20651;-52
2023/03/07 02:30:25;;;;;;;1.50;1.40;;;16.20;50.80;;;;;;5114035;28;20184;-54
2023/03/07 02:32:51;;;;;;;1.73;1.38;;;16.20;50.90;;;;;;5114677;28;20185;-51
2023/03/07 02:35:20;;;;;;;1.23;1.13;;;16.20;50.90;;;;;;5115316;28;20217;-52
2023/03/07 02:37:47;;;;;;;1.10;1.10;;;16.20;50.90;;;;;;5114593;28;20178;-52
2023/03/07 02:40:15;;;;;;;1.30;1.20;;;16.20;50.90;;;;;;5114002;28;20205;-52
2023/03/07 02:42:41;;;;;;;3.25;1.38;;;16.20;50.90;;;;;;5114043;28;20177;-55
2023/03/07 02:45:09;;;;;;;1.67;1.58;;;16.10;50.90;;;;;;5096676;28;20181;-55
2023/03/07 02:47:34;;;;;;;1.30;1.13;;;16.10;50.90;;;;;;5115237;28;20169;-52
2023/03/07 02:50:00;;;;;;;1.40;1.30;;;16.10;50.90;;;;;;5114137;28;20173;-51
2023/03/07 02:52:27;;;;;;;1.98;1.50;;;16.10;50.90;;;;;;5114378;28;20264;-54
2023/03/07 02:54:53;;;;;;;1.60;1.40;;;16.10;50.90;;;;;;5114783;28;20180;-50
2023/03/07 02:57:18;;;;;;;1.10;1.10;;;16.10;50.90;;;;;;5114920;28;20177;-54
2023/03/07 02:59:44;;;;;;;1.50;1.40;;;16.10;51.00;;;;;;5113929;28;20209;-54
2023/03/07 03:02:10;;;;;;;1.52;1.42;;;16.10;50.90;;;;;;5114852;28;20173;-56
2023/03/07 03:04:35;;;;;;;1.45;1.25;;;16.00;50.80;;;;;;5114741;28;20212;-56
2023/03/07 03:07:01;;;;;;;1.10;1.10;;;16.10;50.90;;;;;;5113732;28;20169;-56
2023/03/07 03:09:26;;;;;;;1.38;1.27;;;16.10;51.00;;;;;;5114585;28;20173;-52
2023/03/07 03:11:52;;;;;;;1.23;1.08;;;16.10;51.00;;;;;;5114216;28;20168;-51
2023/03/07 03:14:17;;;;;;;1.23;1.13;;;16.00;50.90;;;;;;5114027;28;20165;-55
2023/03/07 03:16:43;;;;;;;1.50;1.35;;;16.00;50.90;;;;;;5114525;28;20176;-51
2023/03/07 03:19:08;;;;;;;1.33;1.33;;;16.00;50.90;;;;;;5114504;28;20181;-54
2023/03/07 03:21:34;;;;;;;1.30;1.20;;;16.00;50.90;;;;;;5113753;28;20233;-55
2023/03/07 03:24:06;;;;;;;1.08;0.98;;;16.00;50.90;;;;;;5114085;28;20173;-53
2023/03/07 03:26:33;;;;;;;1.40;1.30;;;16.00;50.90;;;;;;5114587;28;20238;-54
2023/03/07 03:28:58;;;;;;;1.45;1.35;;;16.00;50.90;;;;;;5113441;28;20234;-55
2023/03/07 03:31:24;;;;;;;1.85;1.20;;;16.00;50.90;;;;;;5114591;28;20635;-55
2023/03/07 03:33:51;;;;;;;2.45;1.13;;;16.00;51.00;;;;;;5113267;28;20696;-55
2023/03/07 03:36:16;;;;;;;1.90;1.30;;;16.00;51.00;;;;;;5113054;28;20510;-53
2023/03/07 03:38:42;;;;;;;1.58;1.20;;;16.00;50.90;;;;;;5113553;28;20169;-55
2023/03/07 03:41:10;;;;;;;1.20;1.10;;;16.00;51.00;;;;;;5113352;28;20213;-56
2023/03/07 03:43:36;;;;;;;1.30;1.15;;;15.90;50.90;;;;;;5113667;28;20219;-56
2023/03/07 03:46:01;;;;;;;1.35;1.13;;;15.90;50.90;;;;;;5113461;28;20209;-56
2023/03/07 03:48:27;;;;;;;1.15;1.08;;;15.90;50.90;;;;;;5112809;28;20595;-55
2023/03/07 03:51:06;;;;;;;1.13;1.10;;;15.90;50.90;;;;;;5113128;28;20177;-55
2023/03/07 03:53:33;;;;;;;1.30;1.20;;;15.90;50.90;;;;;;5113486;28;20173;-55
2023/03/07 03:56:03;;;;;;;1.23;1.00;;;15.90;50.90;;;;;;5112411;28;20184;-55
2023/03/07 03:58:29;;;;;;;1.00;1.00;;;15.90;51.00;;;;;;5113675;28;20223;-56
2023/03/07 04:00:55;;;;;;;0.98;0.98;;;15.90;50.90;;;;;;5112829;28;20208;-55
2023/03/07 04:03:20;;;;;;;1.00;0.90;;;15.90;51.00;;;;;;5112176;28;20753;-56
2023/03/07 04:05:46;;;;;;;1.00;0.90;;;15.90;51.00;;;;;;5113037;28;20173;-54
2023/03/07 04:08:11;;;;;;;1.20;1.10;;;15.90;51.00;;;;;;5113497;28;20204;-55
2023/03/07 04:10:37;;;;;;;0.85;0.85;;;15.90;51.00;;;;;;5112916;28;20264;-54
2023/03/07 04:13:02;;;;;;;1.15;1.00;;;15.90;51.00;;;;;;5112954;28;20260;-55
2023/03/07 04:15:28;;;;;;;1.25;1.10;;;15.90;51.00;;;;;;5113264;28;20222;-54
2023/03/07 04:17:53;;;;;;;1.00;0.90;;;15.90;51.00;;;;;;5112377;28;20226;-55
2023/03/07 04:20:20;;;;;;;1.10;1.00;;;15.80;51.00;;;;;;5113081;28;20633;-53
2023/03/07 04:22:46;;;;;;;1.30;0.90;;;15.80;50.90;;;;;;5112856;28;20248;-56
2023/03/07 04:25:11;;;;;;;0.95;0.90;;;15.80;51.00;;;;;;5112806;28;20240;-55
2023/03/07 04:27:37;;;;;;;1.77;1.30;;;15.80;51.00;;;;;;5113453;28;20256;-55
2023/03/07 04:30:02;;;;;;;1.20;1.10;;;15.80;51.00;;;;;;5112358;28;20264;-54
2023/03/07 04:32:28;;;;;;;1.08;0.95;;;15.80;51.60;;;;;;5113292;28;20608;-53
2023/03/07 04:34:53;;;;;;;1.08;0.98;;;15.80;51.00;;;;;;5112873;28;20177;-54
2023/03/07 04:37:19;;;;;;;1.40;1.10;;;15.80;51.00;;;;;;5112267;28;20502;-53
2023/03/07 04:39:44;;;;;;;1.00;1.00;;;15.80;51.00;;;;;;5112862;28;20693;-54
2023/03/07 04:42:10;;;;;;;0.85;0.80;;;15.80;51.00;;;;;;5113331;28;20169;-53
2023/03/07 04:44:35;;;;;;;1.33;1.00;;;15.80;51.00;;;;;;5112528;28;20195;-50
2023/03/07 04:47:01;;;;;;;1.10;1.00;;;15.70;51.00;;;;;;5112777;28;20173;-54
2023/03/07 04:49:27;;;;;;;0.90;0.90;;;15.80;51.10;;;;;;5113053;28;20165;-53
2023/03/07 04:51:52;;;;;;;1.38;0.98;;;15.70;51.00;;;;;;5111953;28;20712;-54
2023/03/07 04:54:18;;;;;;;1.25;1.13;;;15.70;51.10;;;;;;5112875;28;20211;-52
2023/03/07 04:56:43;;;;;;;1.02;0.93;;;15.70;51.10;;;;;;5112623;28;20205;-52
2023/03/07 04:59:09;;;;;;;1.37;1.00;;;15.70;51.10;;;;;;5112051;28;20258;-54
2023/03/07 05:01:34;;;;;;;1.10;1.00;;;15.70;51.10;;;;;;5112925;28;20181;-53
2023/03/07 05:04:00;;;;;;;1.50;1.20;;;15.70;51.10;;;;;;5112587;28;20184;-53
2023/03/07 05:06:25;;;;;;;1.02;0.93;;;15.70;51.10;;;;;;5111938;28;20189;-52
2023/03/07 05:08:51;;;;;;;1.52;1.10;;;15.70;51.10;;;;;;5112804;28;20173;-53
2023/03/07 05:11:16;;;;;;;1.52;1.00;;;15.70;51.20;;;;;;5113058;28;20173;-54
2023/03/07 05:13:42;;;;;;;1.60;1.00;;;15.70;51.10;;;;;;5113869;28;20169;-55
2023/03/07 05:16:07;;;;;;;2.08;0.90;;;15.60;51.00;;;;;;5117065;28;20177;-54
2023/03/07 05:18:33;;;;;;;1.33;0.85;;;15.70;51.10;;;;;;5116843;28;20252;-54
2023/03/07 05:20:58;;;;;;;1.20;1.05;;;15.70;51.10;;;;;;5115709;28;20292;-55
2023/03/07 05:23:24;;;;;;;1.02;1.02;;;15.60;51.00;;;;;;5116601;28;20244;-54
2023/03/07 05:25:49;;;;;;;1.92;1.27;;;15.60;51.10;;;;;;5116554;28;20213;-54
2023/03/07 05:28:15;;;;;;;0.73;0.73;;;15.60;51.10;;;;;;5115644;28;20173;-53
2023/03/07 05:30:42;;;;;;;0.73;0.73;;;15.60;51.10;;;;;;5116718;28;20252;-54
2023/03/07 05:33:07;;;;;;;1.10;1.00;;;15.60;51.70;;;;;;5116620;28;20627;-55
2023/03/07 05:35:33;;;;;;;2.17;1.17;;;15.60;51.00;;;;;;5115647;28;20184;-54
2023/03/07 05:37:59;;;;;;;0.90;0.85;;;15.60;51.10;;;;;;5116133;28;20176;-55
2023/03/07 05:40:24;;;;;;;1.35;1.00;;;15.60;51.10;;;;;;5115697;28;20217;-56
2023/03/07 05:42:50;;;;;;;1.52;1.10;;;15.60;51.10;;;;;;5116118;28;20169;-54
2023/03/07 05:45:15;;;;;;;0.80;0.80;;;15.60;51.20;;;;;;5116286;28;20177;-55
2023/03/07 05:47:41;;;;;;;1.20;0.98;;;15.60;51.10;;;;;;5115725;28;20177;-55
2023/03/07 05:50:08;;;;;;;1.35;1.08;;;15.60;51.20;;;;;;5116272;28;20169;-54
2023/03/07 05:52:33;;;;;;;1.73;1.10;;;15.60;51.20;;;;;;5116315;27;20241;-54
2023/03/07 05:54:59;;;;;;;1.00;0.95;;;15.50;51.20;;;;;;5115462;28;20628;-54
2023/03/07 05:57:24;;;;;;;2.63;1.00;;;15.50;51.20;;;;;;5115987;28;20173;-54
2023/03/07 05:59:50;;;;;;;0.90;0.70;;;15.50;51.60;;;;;;5115813;28;20295;-53
2023/03/07 06:02:15;;;;;;;0.82;0.60;;;15.50;51.20;;;;;;5115229;28;20200;-57
2023/03/07 06:04:41;;;;;;;1.15;0.90;;;15.50;51.20;;;;;;5116069;28;20189;-56
2023/03/07 06:07:06;;;;;;;1.25;0.90;;;15.50;51.30;;;;;;5115844;28;20173;-58
2023/03/07 06:09:32;;;;;;;1.42;1.08;;;15.50;51.20;;;;;;5114780;28;20623;-55
2023/03/07 06:11:57;;;;;;;1.52;0.90;;;15.50;51.20;;;;;;5115080;28;20180;-49
2023/03/07 06:14:23;;;;;;;0.98;0.85;;;15.50;51.30;;;;;;5115528;28;20172;-52
2023/03/07 06:16:49;;;;;;;0.80;0.80;;;15.50;51.30;;;;;;5114303;28;20642;-50
2023/03/07 06:19:14;;;;;;;1.48;0.98;;;15.50;51.20;;;;;;5115081;28;20173;-55
2023/03/07 06:21:41;;;;;;;1.77;0.95;;;15.50;51.20;;;;;;5115025;28;20686;-56
2023/03/07 06:24:07;;;;;;;1.55;0.77;;;15.40;51.50;;;;;;5114126;28;20178;-56
2023/03/07 06:26:32;;;;;;;1.67;0.93;;;15.50;51.30;;;;;;5115023;28;20173;-54
2023/03/07 06:28:59;;;;;;;1.23;0.80;;;15.50;51.30;;;;;;5115359;28;20580;-54
2023/03/07 06:31:24;;;;;;;1.35;1.02;;;15.40;51.20;;;;;;5114609;28;20249;-55
2023/03/07 06:33:50;;;;;;;1.00;0.70;;;15.40;51.20;;;;;;5114934;28;20623;-55
2023/03/07 06:36:16;;;;;;;1.48;0.77;;;15.40;51.20;;;;;;5115436;28;20200;-56
2023/03/07 06:38:41;;;;;;;0.98;0.80;;;15.40;51.30;;;;;;5114316;28;20650;-54
2023/03/07 06:41:07;;;;;;;1.08;0.73;;;15.40;51.30;;;;;;5115325;28;20212;-52
2023/03/07 06:43:33;;;;;;;1.20;1.10;;;15.40;51.30;;;;;;5115183;28;20243;-55
2023/03/07 06:45:58;;;;;;;1.33;0.90;;;15.40;51.30;;;;;;5114233;28;20628;-54
2023/03/07 06:48:24;;;;;;;0.77;0.77;;;15.40;51.30;;;;;;5115013;28;20256;-54
2023/03/07 06:50:49;;;;;;;1.13;1.00;;;15.40;51.30;;;;;;5113923;28;20212;-54
2023/03/07 06:53:15;;;;;;;1.00;0.75;;;15.40;51.30;;;;;;5115209;28;20173;-52
2023/03/07 06:55:40;;;;;;;1.67;0.90;;;15.40;51.20;;;;;;5114835;28;20173;-51
2023/03/07 06:58:06;;;;;;;1.08;0.88;;;15.30;51.20;;;;;;5114024;28;20177;-55
2023/03/07 07:00:31;;;;;;;1.65;0.80;;;15.40;51.20;;;;;;5114838;28;20708;-56
2023/03/07 07:02:57;;;;;;;0.80;0.73;;;15.30;51.30;;;;;;5114490;28;20169;-56
2023/03/07 07:05:22;;;;;;;1.83;1.10;;;15.40;51.10;;;;;;5114221;28;20264;-56
2023/03/07 07:07:48;;;;;;;1.70;0.90;;;15.40;51.10;;;;;;5114572;28;20249;-54
2023/03/07 07:10:14;;;;;;;1.63;0.90;;;15.40;51.10;;;;;;5114799;28;20203;-53
2023/03/07 07:12:39;;;;;;;1.48;0.90;;;15.40;51.10;;;;;;5114044;28;20181;-52
2023/03/07 07:15:05;;;;;;;0.95;0.73;;;15.40;51.10;;;;;;5114375;28;20183;-54
2023/03/07 07:17:34;;;;;;;0.88;0.85;;;15.50;51.10;;;;;;5114388;28;20601;-55
2023/03/07 07:20:00;;;;;;;0.98;0.88;;;15.60;51.10;;;;;;5113620;28;20208;-56
2023/03/07 07:22:25;;;;;;;0.82;0.65;;;15.70;50.90;;;;;;5114083;28;20229;-55
2023/03/07 07:24:51;;;;;;;0.63;0.63;;;15.80;50.80;;;;;;5114022;28;20218;-55
2023/03/07 07:27:19;;;;;;;1.50;0.95;;;16.00;50.60;;;;;;5113512;28;20222;-55
2023/03/07 07:29:45;;;;;;;0.60;0.60;;;16.10;50.50;;;;;;5113995;28;20261;-55
2023/03/07 07:32:10;;;;;;;0.82;0.80;;;16.20;50.20;;;;;;5114277;28;20516;-53
2023/03/07 07:34:36;;;;;;;2.03;0.60;;;16.40;50.00;;;;;;5113094;28;20681;-56
2023/03/07 07:37:01;;;;;;;0.50;0.50;;;16.50;49.80;;;;;;5113583;28;20230;-56
2023/03/07 07:39:27;;;;;;;1.00;0.52;;;16.60;49.60;;;;;;5113845;28;20225;-74
2023/03/07 07:41:52;;;;;;;2.38;0.70;;;16.70;49.60;;;;;;5113045;28;20173;-62
2023/03/07 07:44:18;;;;;;;0.80;0.57;;;16.70;49.70;;;;;;5113965;28;20222;-67
2023/03/07 07:46:43;;;;;;;1.02;0.80;;;16.80;49.80;;;;;;5113525;28;20173;-71
2023/03/07 07:49:09;;;;;;;0.93;0.60;;;16.90;49.90;;;;;;5112965;28;20169;-65
2023/03/07 07:51:34;;;;;;;1.52;0.80;;;16.80;50.00;;;;;;5113796;28;20192;-64
2023/03/07 07:54:00;;;;;;;1.77;0.80;;;16.90;50.10;;;;;;5113064;28;20177;-63
2023/03/07 07:56:25;;;;;;;3.30;0.70;;;17.00;50.20;;;;;;5113878;28;20222;-64
2023/03/07 07:58:51;;;;;;;2.75;0.63;;;17.00;50.20;;;;;;5113321;28;20234;-65
2023/03/07 08:01:21;;;;;;;1.63;0.82;;;17.10;50.10;;;;;;5112746;28;20219;-65
2023/03/07 08:03:47;;;;;;;0.60;0.45;;;17.10;50.10;;;;;;5112293;28;20172;-65
2023/03/07 08:06:12;;;;;;;1.58;0.55;;;17.20;50.00;;;;;;5113618;28;20264;-64
2023/03/07 08:08:38;;;;;;;1.17;0.70;;;17.20;50.10;;;;;;5111476;28;20261;-64
2023/03/07 08:11:04;;;;;;;0.55;0.50;;;17.10;50.00;;;;;;5113257;28;20165;-64
2023/03/07 08:13:29;;;;;;;2.72;0.73;;;17.10;50.10;;;;;;5113688;28;20170;-64
2023/03/07 08:15:55;;;;;;;1.15;0.70;;;17.00;50.20;;;;;;5110990;28;20188;-64
2023/03/07 08:18:20;;;;;;;1.45;0.50;;;17.00;50.30;;;;;;5113516;28;20192;-75
2023/03/07 08:20:46;;;;;;;2.55;0.90;;;17.00;50.40;;;;;;5112749;28;20529;-67
2023/03/07 08:23:11;;;;;;;0.80;0.60;;;16.90;50.50;;;;;;5111824;28;20555;-66
2023/03/07 08:25:37;;;;;;;1.27;0.73;;;16.80;50.60;;;;;;5113136;28;20252;-66
2023/03/07 08:28:04;;;;;;;1.60;0.68;;;16.80;50.70;;;;;;5112993;28;20208;-66
2023/03/07 08:30:30;;;;;;;1.50;0.90;;;16.80;50.70;;;;;;5112555;28;20180;-66
2023/03/07 08:32:56;;;;;;;1.35;0.43;;;16.90;50.60;;;;;;5113123;28;20184;-67
2023/03/07 08:35:22;;;;;;;2.50;0.55;;;16.90;50.60;;;;;;5113297;28;20264;-67
2023/03/07 08:37:48;;;;;;;0.85;0.50;;;16.90;50.60;;;;;;5112215;28;20203;-66
2023/03/07 08:40:14;;;;;;;2.38;0.77;;;16.80;50.60;;;;;;5113375;28;20673;-66
2023/03/07 08:42:43;;;;;;;1.67;0.55;;;16.80;50.60;;;;;;5112979;28;20177;-66
2023/03/07 08:45:09;;;;;;;0.60;0.52;;;16.70;50.60;;;;;;5112174;28;20215;-66
2023/03/07 08:47:34;;;;;;;1.77;0.70;;;16.70;50.70;;;;;;5114270;28;20196;-66
2023/03/07 08:50:00;;;;;;;0.55;0.50;;;16.60;50.70;;;;;;5119392;28;20176;-65
2023/03/07 08:52:25;;;;;;;2.15;0.85;;;16.60;50.70;;;;;;5119188;28;20184;-65
2023/03/07 08:54:51;;;;;;;1.08;0.73;;;16.60;50.80;;;;;;5119662;28;20200;-66
2023/03/07 08:57:16;;;;;;;1.73;0.60;;;16.60;50.70;;;;;;5119189;28;20671;-67
2023/03/07 08:59:42;;;;;;;1.58;0.80;;;16.60;50.70;;;;;;5119049;28;20751;-67
2023/03/07 09:02:09;;;;;;;1.58;0.70;;;16.60;50.60;;;;;;5119984;28;20666;-67
2023/03/07 09:04:35;;;;;;;1.70;1.00;;;16.70;50.60;;;;;;5119083;27;20181;-67
2023/03/07 09:07:00;;;;;;;0.93;0.45;;;16.60;50.50;;;;;;5119645;28;20491;-66
2023/03/07 09:09:27;;;;;;;2.33;0.75;;;16.60;50.60;;;;;;5119695;28;20180;-66
2023/03/07 09:11:53;;;;;;;0.90;0.55;;;16.60;50.60;;;;;;5118612;27;20653;-66
2023/03/07 09:14:18;;;;;;;1.42;0.60;;;16.60;50.70;;;;;;5119626;27;20189;-66
2023/03/07 09:16:44;;;;;;;0.65;0.50;;;16.50;50.70;;;;;;5119220;28;20169;-66
2023/03/07 09:19:09;;;;;;;1.42;1.20;;;16.50;50.80;;;;;;5119030;28;20180;-66
2023/03/07 09:21:35;;;;;;;1.17;0.50;;;16.50;50.80;;;;;;5119344;28;20221;-66
2023/03/07 09:24:01;;;;;;;1.38;0.60;;;16.50;50.80;;;;;;5119439;28;20567;-66
2023/03/07 09:26:26;;;;;;;1.10;0.45;;;16.50;50.80;;;;;;5118910;28;20176;-66
2023/03/07 09:28:52;;;;;;;1.20;0.75;;;16.60;50.70;;;;;;5119193;28;20572;-67
2023/03/07 09:31:17;;;;;;;0.75;0.70;;;16.60;50.70;;;;;;5119676;28;20697;-67
2023/03/07 09:33:43;;;;;;;0.73;0.60;;;16.60;50.70;;;;;;5118711;28;20608;-67
2023/03/07 09:36:10;;;;;;;0.43;0.43;;;16.50;50.60;;;;;;5119559;28;20235;-67
2023/03/07 09:38:35;;;;;;;0.40;0.40;;;16.50;50.70;;;;;;5119534;27;20195;-66
2023/03/07 09:41:07;;;;;;;1.10;0.43;;;16.50;50.70;;;;;;5118373;27;20762;-66
2023/03/07 09:43:43;;;;;;;0.57;0.40;;;16.40;50.70;;;;;;5118198;28;20165;-66
2023/03/07 09:46:38;;;;;;;0.93;0.57;;;16.40;50.80;;;;;;5118413;28;20547;-66
2023/03/07 09:49:17;;;;;;;0.82;0.55;;;16.40;50.80;;;;;;5117999;28;20180;-66
2023/03/07 09:51:43;;;;;;;0.52;0.50;;;16.30;50.80;;;;;;5118884;27;20177;-65
2023/03/07 09:54:17;;;;;;;0.93;0.60;;;16.40;50.80;;;;;;5118510;27;20280;-66
2023/03/07 09:56:56;;;;;;;0.60;0.50;;;16.40;50.80;;;;;;5101247;28;20628;-68
2023/03/07 09:59:38;;;;;;;0.50;0.50;;;16.40;50.70;;;;;;5099899;28;20295;-65
2023/03/07 10:02:07;;;;;;;1.10;0.50;;;16.40;51.40;;;;;;5114837;28;20192;-64
2023/03/07 10:04:40;;;;;;;0.60;0.60;;;16.40;50.80;;;;;;5114947;28;20165;-64
2023/03/07 10:07:05;;;;;;;0.80;0.52;;;16.50;50.80;;;;;;5097814;28;20654;-64
2023/03/07 10:09:31;;;;;;;0.50;0.47;;;16.50;50.90;;;;;;5097124;28;20177;-63
2023/03/07 10:12:38;;;;;;;0.80;0.55;;;16.40;50.90;;;;;;5114074;28;20169;-63
2023/03/07 10:15:31;;;;;;;0.50;0.50;;;16.40;50.90;;;;;;5051858;28;20182;-64
2023/03/07 10:18:24;;;;;;;0.70;0.50;;;16.40;50.90;;;;;;5133346;27;20174;-64
2023/03/07 10:21:32;;;;;;;0.88;0.50;;;16.40;50.90;;;;;;5115087;28;20212;-64
2023/03/07 10:24:28;;;;;;;2.05;0.70;;;16.50;50.90;;;;;;5114832;28;20199;-64
2023/03/07 10:27:04;;;;;;;0.95;0.57;;;16.50;50.80;;;;;;5099307;28;20177;-63
2023/03/07 10:29:46;;;;;;;2.58;0.85;;;16.50;50.80;;;;;;5114775;28;20173;-64
2023/03/07 10:32:33;;;;;;;0.52;0.52;;;16.50;50.80;;;;;;5115889;28;20184;-64
2023/03/07 10:35:03;;;;;;;0.70;0.63;;;16.50;50.70;;;;;;5115271;28;20184;-64
2023/03/07 10:37:53;;;;;;;0.80;0.80;;;16.50;50.70;;;;;;5113227;28;20639;-64
2023/03/07 10:40:23;;;;;;;1.20;0.70;;;16.50;50.70;;;;;;5098964;28;20221;-65
2023/03/07 10:42:49;;;;;;;0.95;0.80;;;16.50;50.90;;;;;;5114032;28;20180;-65
2023/03/07 10:45:15;;;;;;;2.38;0.82;;;16.50;50.80;;;;;;5115032;28;20630;-66
2023/03/07 10:47:40;;;;;;;0.70;0.70;;;16.50;50.90;;;;;;5113587;28;20256;-64
2023/03/07 10:50:27;;;;;;;0.73;0.60;;;16.50;51.00;;;;;;5113662;28;20238;-65
2023/03/07 10:53:00;;;;;;;1.05;0.60;;;16.50;51.00;;;;;;5113217;28;20719;-62
2023/03/07 10:55:33;;;;;;;1.20;0.70;;;16.50;51.00;;;;;;5113386;28;20177;-62
2023/03/07 10:58:14;;;;;;;2.63;1.00;;;16.50;51.00;;;;;;5113071;28;20261;-64
2023/03/07 11:00:43;;;;;;;2.28;0.85;;;16.60;51.10;;;;;;5114570;28;20286;-62
2023/03/07 11:03:40;;;;;;;1.00;0.80;;;16.60;51.10;;;;;;5113574;28;20169;-63
2023/03/07 11:06:10;;;;;;;0.75;0.75;;;16.60;51.20;;;;;;5113492;28;20275;-63
2023/03/07 11:08:36;;;;;;;3.15;1.00;;;16.60;51.70;;;;;;5113404;28;20169;-64
2023/03/07 11:11:03;;;;;;;1.40;0.75;;;16.50;51.60;;;;;;5114946;27;20181;-64
2023/03/07 11:13:29;;;;;;;1.38;0.80;;;16.50;51.80;;;;;;5120307;27;20545;-64
2023/03/07 11:16:18;;;;;;;1.00;0.80;;;16.50;51.90;;;;;;5129731;27;20172;-65
2023/03/07 11:18:44;;;;;;;0.75;0.70;;;16.40;52.00;;;;;;5127530;27;20170;-65
2023/03/07 11:21:33;;;;;;;1.40;1.02;;;16.40;52.20;;;;;;5113844;28;20204;-64
2023/03/07 11:24:03;;;;;;;1.25;0.70;;;16.30;52.30;;;;;;5105958;28;20199;-64
2023/03/07 11:26:31;;;;;;;1.45;0.95;;;16.30;52.50;;;;;;5113502;28;20184;-64
2023/03/07 11:29:07;;;;;;;0.60;0.60;;;16.30;52.60;;;;;;5132992;27;20314;-65
2023/03/07 11:31:36;;;;;;;1.00;0.70;;;16.30;52.50;;;;;;5131839;27;20245;-65
2023/03/07 11:34:21;;;;;;;1.00;0.65;;;16.20;52.60;;;;;;5113361;28;20282;-66
2023/03/07 11:36:47;;;;;;;1.67;0.68;;;16.20;52.90;;;;;;5112797;28;20176;-66
2023/03/07 11:39:28;;;;;;;1.10;0.80;;;16.20;53.00;;;;;;5112205;28;20238;-65
2023/03/07 11:41:56;;;;;;;1.70;0.60;;;16.20;52.90;;;;;;5113507;28;20185;-64
2023/03/07 11:44:30;;;;;;;0.80;0.60;;;16.20;52.90;;;;;;5118444;27;20294;-65
2023/03/07 11:47:08;;;;;;;1.35;0.60;;;16.20;52.40;;;;;;5132129;27;20179;-64
2023/03/07 11:49:52;;;;;;;0.65;0.57;;;16.20;52.40;;;;;;5133271;27;20175;-64
2023/03/07 11:52:41;;;;;;;0.60;0.52;;;16.20;52.20;;;;;;5134194;27;20370;-64
2023/03/07 11:55:25;;;;;;;0.57;0.52;;;16.20;52.10;;;;;;5133483;27;20164;-64
2023/03/07 11:58:20;;;;;;;1.30;0.60;;;16.20;52.00;;;;;;5133948;27;20176;-66
2023/03/07 12:01:33;;;;;;;1.52;0.57;;;16.30;52.00;;;;;;5131842;27;20204;-66
2023/03/07 12:04:18;;;;;;;1.73;0.60;;;16.40;52.00;;;;;;5105739;27;20569;-64
2023/03/07 12:07:18;;;;;;;5.78;0.70;;;16.40;52.00;;;;;;5132558;27;20176;-67
2023/03/07 12:10:06;;;;;;;1.33;0.60;;;16.50;51.90;;;;;;5132705;27;20247;-65
2023/03/07 12:12:52;;;;;;;1.08;0.68;;;16.50;51.90;;;;;;5133662;27;20697;-65
2023/03/07 12:15:26;;;;;;;1.95;0.57;;;16.50;51.70;;;;;;5132963;27;20176;-66
2023/03/07 12:18:06;;;;;;;1.67;0.73;;;16.60;52.30;;;;;;5132167;27;20172;-67
2023/03/07 12:21:11;;;;;;;2.40;0.65;;;16.60;51.60;;;;;;5093192;28;20548;-66
2023/03/07 12:23:41;;;;;;;2.28;0.60;;;16.60;51.70;;;;;;5090531;28;20221;-66
2023/03/07 12:26:31;;;;;;;0.70;0.50;;;16.60;51.70;;;;;;5091042;28;20200;-65
2023/03/07 12:29:05;;;;;;;2.20;0.60;;;16.60;51.70;;;;;;5090227;28;20655;-65
2023/03/07 12:31:34;;;;;;;2.65;0.75;;;16.60;51.80;;;;;;5091518;28;20200;-66
2023/03/07 12:34:10;;;;;;;0.95;0.60;;;16.60;51.80;;;;;;5091011;28;20177;-67
2023/03/07 12:36:43;;;;;;;1.00;0.75;;;16.60;51.70;;;;;;5092179;28;20181;-67
2023/03/07 12:39:15;;;;;;;0.60;0.60;;;16.60;51.60;;;;;;5091454;28;20174;-62
2023/03/07 12:42:01;;;;;;;3.30;0.57;;;16.70;51.70;;;;;;5091214;28;20210;-66
2023/03/07 12:44:29;;;;;;;0.70;0.40;;;16.60;51.60;;;;;;5090522;28;20173;-64
2023/03/07 12:47:10;;;;;;;2.67;0.80;;;16.60;51.70;;;;;;5091974;28;20223;-64
2023/03/07 12:49:52;;;;;;;1.13;0.70;;;16.60;51.60;;;;;;5091555;28;20677;-63
2023/03/07 12:52:51;;;;;;;1.48;0.60;;;16.60;51.70;;;;;;5109227;28;20188;-63
2023/03/07 12:55:37;;;;;;;3.25;0.75;;;16.60;51.70;;;;;;5102726;28;20734;-63
2023/03/07 12:58:18;;;;;;;1.65;0.60;;;16.60;51.80;;;;;;5091047;28;20689;-65